Time;durP1;ratioP1;P1;durP2;ratioP2;P2;SDS_P1;SDS_P2;PMS_P1;PMS_P2;Temp;Humidity;BMP_temperature;BMP_pressure;BME280_temperature;BME280_humidity;BME280_pressure;Samples;Min_cycle;Max_cycle;Signal;HPM_P1;HPM_P2
2021/11/26 00:00:36;;;;;;;39.05;23.22;;;;;;;2.70;78.98;99172.41;1758794;81;21477;-84
2021/11/26 00:03:03;;;;;;;42.00;25.12;;;;;;;2.61;79.06;99155.17;1743055;81;21047;-84
2021/11/26 00:05:31;;;;;;;32.80;23.73;;;;;;;2.70;79.00;99171.10;1747647;81;20969;-84
2021/11/26 00:07:58;;;;;;;41.30;25.77;;;;;;;2.70;78.99;99168.94;1744083;81;21045;-84
2021/11/26 00:10:25;;;;;;;40.85;25.37;;;;;;;2.69;79.07;99158.15;1749559;81;21013;-84
2021/11/26 00:12:57;;;;;;;43.40;26.05;;;;;;;2.69;79.07;99155.55;1746203;81;21531;-84
2021/11/26 00:18:04;;;;;;;47.62;28.15;;;;;;;2.66;79.16;99139.63;1740567;81;21452;-85
2021/11/26 00:20:27;;;;;;;46.37;28.17;;;;;;;2.67;79.19;99127.47;1751684;81;21687;-84
2021/11/26 00:22:54;;;;;;;49.95;28.67;;;;;;;2.64;79.16;99120.66;1745648;81;21036;-85
2021/11/26 00:25:21;;;;;;;46.58;29.15;;;;;;;2.63;79.11;99126.78;1740540;82;20954;-84
2021/11/26 00:27:51;;;;;;;47.35;27.02;;;;;;;2.63;79.14;99131.98;1713862;83;20972;-84
2021/11/26 00:30:18;;;;;;;50.23;28.02;;;;;;;2.60;79.08;99132.20;1750860;81;21065;-84
2021/11/26 00:32:46;;;;;;;45.43;27.13;;;;;;;2.59;79.14;99139.61;1745278;81;20982;-84
2021/11/26 00:35:13;;;;;;;46.73;27.67;;;;;;;2.56;79.21;99132.81;1747556;81;20986;-84
2021/11/26 00:37:40;;;;;;;49.60;29.05;;;;;;;2.53;79.27;99127.81;1742617;81;21704;-84
2021/11/26 00:40:08;;;;;;;50.40;28.12;;;;;;;2.53;79.24;99125.64;1738527;81;20993;-84
2021/11/26 00:42:39;;;;;;;53.55;29.92;;;;;;;2.53;79.19;99127.81;1748789;81;20932;-84
2021/11/26 00:45:06;;;;;;;50.23;28.98;;;;;;;2.52;79.16;99117.00;1736851;81;21518;-84
2021/11/26 00:47:34;;;;;;;42.75;27.62;;;;;;;2.52;79.29;99113.09;1745226;81;21529;-84
2021/11/26 00:50:01;;;;;;;49.93;28.30;;;;;;;2.51;79.15;99117.94;1739337;82;21018;-84
2021/11/26 00:52:28;;;;;;;53.45;31.30;;;;;;;2.48;79.21;99119.42;1758180;81;21005;-84
2021/11/26 00:54:55;;;;;;;44.00;27.02;;;;;;;2.49;79.18;99118.95;1749163;81;21468;-84
2021/11/26 00:57:23;;;;;;;50.43;29.00;;;;;;;2.48;79.28;99123.80;1752147;81;21020;-84
2021/11/26 00:59:50;;;;;;;45.92;28.17;;;;;;;2.47;79.29;99133.38;1749281;81;21018;-84
2021/11/26 01:02:18;;;;;;;50.60;28.52;;;;;;;2.47;79.33;99128.17;1746366;81;20987;-84
2021/11/26 01:04:45;;;;;;;44.88;27.75;;;;;;;2.48;79.33;99129.00;1745180;81;21431;-84
2021/11/26 01:07:12;;;;;;;46.42;27.48;;;;;;;2.48;79.44;99133.74;1744063;81;21037;-84
2021/11/26 01:09:39;;;;;;;47.43;29.27;;;;;;;2.47;79.44;99129.91;1744329;82;21006;-84
2021/11/26 01:12:07;;;;;;;53.05;29.48;;;;;;;2.48;79.55;99134.20;1745677;81;21018;-85
2021/11/26 01:14:35;;;;;;;50.35;29.82;;;;;;;2.48;79.38;99110.77;1750409;81;20935;-84
2021/11/26 01:17:02;;;;;;;45.90;27.77;;;;;;;2.48;79.32;99091.24;1759130;81;21025;-84
2021/11/26 01:19:29;;;;;;;54.03;29.65;;;;;;;2.48;79.41;99088.17;1756439;81;21473;-84
2021/11/26 01:21:56;;;;;;;49.15;30.43;;;;;;;2.51;79.53;99078.05;1757608;81;20989;-85
2021/11/26 01:24:24;;;;;;;47.67;26.90;;;;;;;2.52;79.26;99061.48;1743426;82;20950;-84
2021/11/26 01:26:51;;;;;;;53.73;29.92;;;;;;;2.52;79.26;99051.06;1743613;81;20978;-84
2021/11/26 01:29:18;;;;;;;48.55;28.55;;;;;;;2.52;79.52;99067.52;1745029;81;20998;-84
2021/11/26 01:31:46;;;;;;;49.77;30.52;;;;;;;2.54;79.45;99085.20;1748359;81;21033;-84
2021/11/26 01:34:13;;;;;;;45.90;28.05;;;;;;;2.55;79.49;99080.83;1743697;81;20974;-84
2021/11/26 01:36:42;;;;;;;48.38;28.57;;;;;;;2.54;79.38;99070.88;1746800;81;21013;-84
2021/11/26 01:39:09;;;;;;;46.98;28.75;;;;;;;2.53;79.29;99057.50;1747979;81;21022;-84
2021/11/26 01:41:41;;;;;;;49.15;27.35;;;;;;;2.54;79.35;99054.42;1744923;81;21013;-84
2021/11/26 01:44:05;;;;;;;45.08;27.37;;;;;;;2.54;79.28;99055.27;1745426;81;21118;-84
2021/11/26 01:46:40;;;;;;;49.67;27.98;;;;;;;2.57;79.26;99069.88;1744869;81;21504;-85
2021/11/26 01:49:08;;;;;;;46.50;27.20;;;;;;;2.57;79.35;99066.80;1740289;82;21045;-85
2021/11/26 01:51:35;;;;;;;48.20;26.68;;;;;;;2.56;79.19;99071.61;1744763;81;21017;-84
2021/11/26 01:54:04;;;;;;;47.65;26.37;;;;;;;2.55;79.28;99075.62;1747736;81;21546;-84
2021/11/26 01:56:32;;;;;;;47.03;29.02;;;;;;;2.54;79.27;99070.88;1741872;81;20989;-84
2021/11/26 01:59:00;;;;;;;44.80;27.37;;;;;;;2.56;79.29;99061.66;1742221;82;20966;-84
2021/11/26 02:01:27;;;;;;;43.50;26.48;;;;;;;2.56;79.17;99062.97;1744360;81;21592;-84
2021/11/26 02:03:55;;;;;;;47.65;26.90;;;;;;;2.55;79.50;99071.72;1745256;81;21032;-84
2021/11/26 02:06:22;;;;;;;47.40;28.65;;;;;;;2.55;79.32;99067.81;1757156;81;20985;-84
2021/11/26 02:08:50;;;;;;;44.65;26.42;;;;;;;2.55;79.43;99065.20;1751132;81;20962;-84
2021/11/26 02:11:18;;;;;;;45.03;26.02;;;;;;;2.53;79.24;99054.03;1753909;81;20985;-84
2021/11/26 02:13:46;;;;;;;39.48;24.57;;;;;;;2.52;79.31;99054.97;1728392;81;20978;-84
2021/11/26 02:16:13;;;;;;;41.00;25.52;;;;;;;2.52;79.17;99056.27;1762253;81;20978;-84
2021/11/26 02:18:40;;;;;;;40.33;25.30;;;;;;;2.51;79.28;99056.74;1749730;81;21477;-84
2021/11/26 02:21:07;;;;;;;47.80;26.10;;;;;;;2.52;79.43;99047.16;1748206;81;20990;-84
2021/11/26 02:23:34;;;;;;;44.88;25.48;;;;;;;2.52;79.44;99039.34;1749833;81;20993;-84
2021/11/26 02:26:02;;;;;;;41.45;25.60;;;;;;;2.53;79.28;99027.99;1748324;81;21417;-84
2021/11/26 02:28:29;;;;;;;46.18;27.00;;;;;;;2.51;79.29;99025.50;1756564;81;21013;-84
2021/11/26 02:30:57;;;;;;;42.73;26.00;;;;;;;2.51;79.43;99018.98;1765792;81;20955;-84
2021/11/26 02:33:24;;;;;;;47.98;28.23;;;;;;;2.52;79.36;99018.52;1747901;82;20986;-84
2021/11/26 02:35:54;;;;;;;44.48;26.45;;;;;;;2.54;79.23;99016.20;1748096;82;21045;-84
2021/11/26 02:38:27;;;;;;;45.83;27.60;;;;;;;2.55;79.24;99019.63;1747912;81;21025;-84
2021/11/26 02:40:54;;;;;;;48.52;28.77;;;;;;;2.56;79.16;99023.91;1723358;82;21104;-84
2021/11/26 02:43:23;;;;;;;43.35;25.95;;;;;;;2.57;79.23;99023.83;1741994;82;21053;-84
2021/11/26 02:45:51;;;;;;;44.80;25.68;;;;;;;2.57;79.14;99021.22;1742449;82;21065;-84
2021/11/26 02:48:18;;;;;;;44.90;24.98;;;;;;;2.57;79.14;99016.48;1742106;82;20973;-84
2021/11/26 02:50:48;;;;;;;45.55;27.00;;;;;;;2.57;79.17;99022.52;1729448;82;21036;-84
2021/11/26 02:53:15;;;;;;;41.53;25.57;;;;;;;2.58;79.01;99027.27;1742006;82;20985;-84
2021/11/26 02:55:43;;;;;;;39.92;25.17;;;;;;;2.58;79.11;99022.05;1742522;82;21001;-84
2021/11/26 02:58:11;;;;;;;42.23;25.35;;;;;;;2.58;79.03;99009.87;1742459;82;21456;-84
2021/11/26 03:00:42;;;;;;;43.60;25.95;;;;;;;2.58;79.09;99009.03;1742886;82;21001;-85
2021/11/26 03:03:09;;;;;;;47.48;26.33;;;;;;;2.58;78.95;99010.34;1741712;81;21350;-84
2021/11/26 03:05:36;;;;;;;46.42;27.00;;;;;;;2.57;78.87;99009.50;1737474;82;21483;-84
2021/11/26 03:08:05;;;;;;;52.95;30.65;;;;;;;2.54;78.99;99003.65;1748520;81;20997;-84
2021/11/26 03:10:33;;;;;;;51.85;29.60;;;;;;;2.52;79.13;98998.52;1754481;81;21004;-84
2021/11/26 03:13:06;;;;;;;50.95;30.00;;;;;;;2.52;79.20;99003.72;1758653;81;21470;-84
2021/11/26 03:15:37;;;;;;;47.00;28.92;;;;;;;2.52;79.32;99005.50;1754640;81;21481;-84
2021/11/26 03:18:05;;;;;;;45.48;27.40;;;;;;;2.51;79.40;98996.85;1755411;81;21005;-84
2021/11/26 03:20:32;;;;;;;48.00;27.37;;;;;;;2.51;79.39;98990.81;1748207;81;21007;-84
2021/11/26 03:22:59;;;;;;;41.58;26.87;;;;;;;2.51;79.53;98980.39;1749722;81;21054;-84
2021/11/26 03:25:27;;;;;;;46.95;28.60;;;;;;;2.50;79.49;98974.80;1748343;81;20973;-84
2021/11/26 03:27:54;;;;;;;45.98;26.33;;;;;;;2.49;79.60;98966.63;1758563;81;21030;-85
2021/11/26 03:30:23;;;;;;;43.70;27.32;;;;;;;2.48;79.72;98959.28;1767302;81;20978;-84
2021/11/26 03:32:51;;;;;;;51.80;29.45;;;;;;;2.47;79.70;98952.41;1748908;81;21555;-85
2021/11/26 03:35:20;;;;;;;49.65;29.32;;;;;;;2.47;79.63;98954.14;1748296;81;21010;-84
2021/11/26 03:37:48;;;;;;;43.85;27.42;;;;;;;2.44;79.72;98946.08;1748329;82;20994;-84
2021/11/26 03:40:19;;;;;;;43.65;25.75;;;;;;;2.44;79.79;98944.78;1748541;81;22294;-84
2021/11/26 03:42:47;;;;;;;47.43;27.37;;;;;;;2.42;79.97;98955.74;1764901;81;20950;-84
2021/11/26 03:45:16;;;;;;;48.15;29.37;;;;;;;2.43;79.98;98954.80;1767072;81;21551;-85
2021/11/26 03:47:44;;;;;;;47.30;29.75;;;;;;;2.43;79.93;98939.65;1758178;81;20998;-84
2021/11/26 03:50:12;;;;;;;45.17;29.90;;;;;;;2.40;80.04;98938.06;1748422;81;21039;-85
2021/11/26 03:52:40;;;;;;;48.28;31.20;;;;;;;2.41;80.16;98944.14;1748286;82;21005;-84
2021/11/26 03:55:12;;;;;;;46.15;29.50;;;;;;;2.42;80.17;98944.49;1749658;81;21021;-84
2021/11/26 03:57:40;;;;;;;49.67;29.25;;;;;;;2.42;80.25;98944.49;1768602;81;21002;-84
2021/11/26 04:00:10;;;;;;;47.43;28.32;;;;;;;2.43;80.23;98947.46;1766241;81;20998;-84
2021/11/26 04:02:38;;;;;;;46.05;27.20;;;;;;;2.42;80.26;98950.53;1716360;83;21009;-84
2021/11/26 04:05:07;;;;;;;44.23;27.32;;;;;;;2.43;80.27;98948.77;1721194;83;20986;-84
2021/11/26 04:07:34;;;;;;;51.00;28.80;;;;;;;2.42;80.32;98951.84;1748145;81;21343;-84
2021/11/26 04:10:02;;;;;;;55.73;32.60;;;;;;;2.43;80.37;98948.77;1743541;82;21530;-84
2021/11/26 04:12:29;;;;;;;50.95;30.85;;;;;;;2.43;80.34;98943.09;1737240;82;21001;-84
2021/11/26 04:14:56;;;;;;;51.98;33.05;;;;;;;2.43;80.36;98943.55;1737483;82;21008;-84
2021/11/26 04:17:24;;;;;;;55.63;32.85;;;;;;;2.44;80.42;98947.86;1737067;82;21464;-84
2021/11/26 04:19:52;;;;;;;54.58;30.40;;;;;;;2.44;80.43;98937.44;1737456;82;21008;-84
2021/11/26 04:22:19;;;;;;;47.17;29.10;;;;;;;2.42;80.43;98941.42;1742715;82;21005;-84
2021/11/26 04:24:47;;;;;;;50.65;30.52;;;;;;;2.42;80.49;98936.22;1748123;82;21033;-84
2021/11/26 04:27:14;;;;;;;46.50;29.60;;;;;;;2.44;80.66;98937.44;1748063;82;21022;-84
2021/11/26 04:29:41;;;;;;;44.23;27.22;;;;;;;2.44;80.54;98935.67;1748288;82;20994;-84
2021/11/26 04:32:09;;;;;;;42.60;26.60;;;;;;;2.45;80.66;98931.29;1747998;82;20942;-84
2021/11/26 04:34:36;;;;;;;45.83;26.75;;;;;;;2.45;80.55;98927.39;1748312;82;21049;-84
2021/11/26 04:37:03;;;;;;;48.00;27.93;;;;;;;2.45;80.65;98928.22;1748066;82;21033;-84
2021/11/26 04:39:32;;;;;;;45.45;26.57;;;;;;;2.46;80.63;98923.38;1748292;82;21033;-84
2021/11/26 04:41:59;;;;;;;44.98;26.52;;;;;;;2.46;80.69;98923.38;1748094;82;21006;-84
2021/11/26 04:44:28;;;;;;;43.60;28.70;;;;;;;2.46;80.74;98919.94;1748011;82;22315;-84
2021/11/26 04:46:55;;;;;;;49.80;28.62;;;;;;;2.48;80.71;98918.09;1748154;81;21049;-84
2021/11/26 04:49:22;;;;;;;47.85;26.62;;;;;;;2.48;80.75;98917.62;1749418;81;21037;-84
2021/11/26 04:51:49;;;;;;;45.12;27.05;;;;;;;2.50;80.80;98916.20;1748370;81;21018;-84
2021/11/26 04:54:17;;;;;;;46.08;27.00;;;;;;;2.50;80.77;98913.60;1748428;82;21032;-84
2021/11/26 04:56:44;;;;;;;44.98;27.30;;;;;;;2.51;80.90;98914.00;1759002;81;21461;-84
2021/11/26 04:59:11;;;;;;;44.10;27.60;;;;;;;2.52;80.80;98919.09;1753762;81;21013;-84
2021/11/26 05:01:38;;;;;;;46.00;26.70;;;;;;;2.52;80.74;98910.45;1764190;81;20987;-84
2021/11/26 05:04:06;;;;;;;36.90;23.38;;;;;;;2.50;80.87;98907.09;1751105;81;21029;-84
2021/11/26 05:06:35;;;;;;;42.20;25.25;;;;;;;2.52;81.03;98909.14;1751005;81;20939;-84
2021/11/26 05:09:06;;;;;;;47.38;28.65;;;;;;;2.54;81.08;98898.19;1738708;81;21002;-84
2021/11/26 05:11:34;;;;;;;44.75;26.33;;;;;;;2.53;80.99;98893.45;1768443;81;21017;-84
2021/11/26 05:14:05;;;;;;;41.65;25.45;;;;;;;2.55;80.99;98885.52;1769016;81;21516;-84
2021/11/26 05:16:32;;;;;;;47.55;27.13;;;;;;;2.54;80.83;98881.25;1768498;81;21037;-85
2021/11/26 05:19:00;;;;;;;47.20;27.62;;;;;;;2.55;80.86;98872.03;1762280;81;21021;-85
2021/11/26 05:21:27;;;;;;;44.18;26.85;;;;;;;2.55;81.08;98866.82;1756515;81;21029;-84
2021/11/26 05:23:54;;;;;;;47.65;27.05;;;;;;;2.59;81.08;98868.30;1768792;81;22082;-84
2021/11/26 05:26:22;;;;;;;42.67;26.70;;;;;;;2.62;81.27;98859.45;1761555;81;20989;-84
2021/11/26 05:28:49;;;;;;;44.70;27.80;;;;;;;2.59;81.25;98859.65;1752469;81;20962;-84
2021/11/26 05:31:16;;;;;;;57.15;34.08;;;;;;;2.63;81.39;98870.70;1767223;81;21471;-85
2021/11/26 05:33:43;;;;;;;64.17;35.83;;;;;;;2.63;81.16;98862.42;1767935;81;21006;-85
2021/11/26 05:36:11;;;;;;;59.90;33.65;;;;;;;2.65;81.21;98868.38;1758392;81;21054;-85
2021/11/26 05:38:38;;;;;;;53.52;32.03;;;;;;;2.67;81.12;98869.60;1758146;81;21483;-84
2021/11/26 05:41:06;;;;;;;58.65;33.13;;;;;;;2.67;81.29;98870.44;1768505;81;21012;-84
2021/11/26 05:43:33;;;;;;;54.03;33.08;;;;;;;2.68;81.25;98872.09;1755617;81;20974;-85
2021/11/26 05:46:01;;;;;;;52.75;31.87;;;;;;;2.69;81.27;98870.33;1748283;81;21508;-84
2021/11/26 05:48:28;;;;;;;51.13;29.50;;;;;;;2.69;81.16;98871.16;1749654;81;21017;-84
2021/11/26 05:50:55;;;;;;;52.62;30.92;;;;;;;2.70;81.13;98870.69;1757281;81;20942;-84
2021/11/26 05:53:22;;;;;;;44.67;25.17;;;;;;;2.71;81.05;98869.30;1768691;81;20934;-85
2021/11/26 05:55:50;;;;;;;51.40;29.25;;;;;;;2.72;81.19;98868.83;1767330;81;21021;-85
2021/11/26 05:58:17;;;;;;;47.48;27.32;;;;;;;2.72;81.20;98863.63;1768901;81;21009;-85
2021/11/26 06:00:45;;;;;;;46.10;28.07;;;;;;;2.73;81.20;98864.84;1762674;81;21341;-84
2021/11/26 06:03:12;;;;;;;48.85;27.58;;;;;;;2.75;81.20;98859.52;1754355;81;21017;-85
2021/11/26 06:05:39;;;;;;;42.20;26.40;;;;;;;2.75;81.05;98849.93;1742540;81;20962;-84
2021/11/26 06:08:06;;;;;;;45.05;25.97;;;;;;;2.74;81.06;98853.48;1748291;82;21558;-84
2021/11/26 06:10:34;;;;;;;44.93;26.80;;;;;;;2.74;81.20;98847.44;1743428;82;21579;-84
2021/11/26 06:13:01;;;;;;;44.53;26.35;;;;;;;2.74;81.04;98850.05;1744055;82;21009;-85
2021/11/26 06:15:29;;;;;;;44.63;26.60;;;;;;;2.71;80.92;98844.55;1748048;82;20998;-85
2021/11/26 06:17:56;;;;;;;47.70;28.30;;;;;;;2.71;81.24;98847.16;1745567;81;21510;-85
2021/11/26 06:20:24;;;;;;;47.65;30.40;;;;;;;2.72;81.17;98849.30;1744488;82;20990;-84
2021/11/26 06:22:52;;;;;;;82.88;48.73;;;;;;;2.69;80.97;98855.52;1742082;82;21326;-84
2021/11/26 06:25:22;;;;;;;108.20;63.98;;;;;;;2.66;81.20;98850.51;1742257;82;20942;-85
2021/11/26 06:27:50;;;;;;;103.80;59.23;;;;;;;2.64;81.21;98848.48;1759402;81;20974;-84
2021/11/26 06:30:22;;;;;;;90.12;49.38;;;;;;;2.64;81.40;98850.27;1762621;81;20997;-85
2021/11/26 06:32:49;;;;;;;65.57;35.03;;;;;;;2.65;81.50;98848.84;1740801;81;21013;-85
2021/11/26 06:35:20;;;;;;;64.12;36.68;;;;;;;2.65;81.65;98848.84;1748750;81;21573;-85
2021/11/26 06:37:52;;;;;;;59.45;32.58;;;;;;;2.68;81.68;98845.22;1718687;83;21026;-85
2021/11/26 06:40:20;;;;;;;50.78;30.37;;;;;;;2.69;81.59;98846.41;1718685;83;21041;-85
2021/11/26 06:42:48;;;;;;;61.68;33.00;;;;;;;2.69;81.59;98839.90;1724465;81;21017;-85
2021/11/26 06:45:16;;;;;;;56.68;32.45;;;;;;;2.68;81.53;98846.05;1766718;81;21069;-83
2021/11/26 06:47:46;;;;;;;51.95;31.30;;;;;;;2.67;81.52;98846.99;1767382;81;20939;-83
2021/11/26 06:50:14;;;;;;;56.25;32.05;;;;;;;2.63;81.47;98843.36;1751335;81;21010;-83
2021/11/26 06:52:42;;;;;;;54.38;30.10;;;;;;;2.56;81.52;98837.23;1748376;82;21623;-83
2021/11/26 06:55:10;;;;;;;53.78;31.05;;;;;;;2.52;81.69;98835.77;1747324;82;21013;-83
2021/11/26 06:57:39;;;;;;;50.70;31.27;;;;;;;2.50;81.91;98836.34;1748218;82;21054;-83
2021/11/26 07:00:14;;;;;;;58.00;33.60;;;;;;;2.50;81.94;98836.78;1748428;81;21061;-83
2021/11/26 07:02:41;;;;;;;54.55;31.37;;;;;;;2.49;82.05;98839.03;1748265;82;21030;-82
2021/11/26 07:05:10;;;;;;;57.53;34.00;;;;;;;2.46;82.04;98836.14;1748257;82;20982;-83
2021/11/26 07:07:37;;;;;;;67.58;34.67;;;;;;;2.42;82.22;98826.03;1747981;82;21053;-83
2021/11/26 07:10:08;;;;;;;54.60;34.13;;;;;;;2.43;82.36;98826.39;1748403;82;21453;-83
2021/11/26 07:12:35;;;;;;;61.33;34.45;;;;;;;2.45;82.56;98826.67;1748227;81;20982;-83
2021/11/26 07:15:06;;;;;;;56.15;33.15;;;;;;;2.47;82.60;98833.08;1748226;81;21028;-83
2021/11/26 07:17:34;;;;;;;52.73;32.25;;;;;;;2.46;82.56;98833.55;1748158;82;20970;-83
2021/11/26 07:20:04;;;;;;;52.45;30.60;;;;;;;2.46;82.55;98840.05;1748278;82;21084;-83
2021/11/26 07:22:31;;;;;;;52.80;30.60;;;;;;;2.46;82.64;98839.22;1748275;81;21001;-83
2021/11/26 07:24:59;;;;;;;56.50;31.10;;;;;;;2.45;82.75;98832.35;1748306;82;21010;-83
2021/11/26 07:27:26;;;;;;;59.85;34.95;;;;;;;2.44;82.72;98834.13;1748153;82;21050;-83
2021/11/26 07:29:54;;;;;;;58.60;32.00;;;;;;;2.43;82.92;98835.51;1748275;82;20982;-83
2021/11/26 07:32:22;;;;;;;49.38;32.05;;;;;;;2.46;83.01;98837.92;1747716;82;21634;-83
2021/11/26 07:34:51;;;;;;;52.93;31.60;;;;;;;2.48;83.09;98835.59;1748261;82;20982;-83
2021/11/26 07:37:18;;;;;;;55.73;32.98;;;;;;;2.50;83.03;98838.95;1748146;82;20952;-83
2021/11/26 07:39:46;;;;;;;56.73;31.23;;;;;;;2.52;83.12;98841.44;1748330;82;21044;-83
2021/11/26 07:42:13;;;;;;;58.70;33.35;;;;;;;2.53;83.16;98847.02;1748201;81;21405;-83
2021/11/26 07:44:42;;;;;;;54.45;30.20;;;;;;;2.56;83.15;98835.10;1748211;82;21061;-83
2021/11/26 07:47:13;;;;;;;56.18;33.92;;;;;;;2.56;83.09;98833.80;1748047;82;21068;-83
2021/11/26 07:49:41;;;;;;;55.45;31.27;;;;;;;2.58;83.12;98833.25;1747944;82;21053;-83
2021/11/26 07:52:10;;;;;;;53.48;30.82;;;;;;;2.58;83.08;98835.37;1748177;82;21029;-83
2021/11/26 07:54:38;;;;;;;56.50;32.17;;;;;;;2.59;83.06;98840.95;1748059;82;21029;-83
2021/11/26 07:57:05;;;;;;;52.60;32.28;;;;;;;2.60;83.00;98841.81;1748075;81;21535;-83
2021/11/26 07:59:33;;;;;;;53.45;31.00;;;;;;;2.59;83.14;98845.33;1748318;82;20986;-83
2021/11/26 08:02:00;;;;;;;52.15;32.53;;;;;;;2.61;83.22;98836.96;1748224;81;21492;-83
2021/11/26 08:04:27;;;;;;;56.37;33.08;;;;;;;2.66;83.44;98840.09;1748444;82;21001;-83
2021/11/26 08:06:54;;;;;;;72.47;36.77;;;;;;;2.68;83.30;98835.63;1748047;82;21002;-83
2021/11/26 08:09:22;;;;;;;60.30;36.58;;;;;;;2.72;83.31;98830.59;1748351;82;21085;-83
2021/11/26 08:11:52;;;;;;;54.63;33.73;;;;;;;2.74;83.30;98835.72;1747988;81;20965;-83
2021/11/26 08:14:20;;;;;;;58.13;31.82;;;;;;;2.76;83.20;98832.09;1748472;82;20970;-83
2021/11/26 08:16:50;;;;;;;48.92;28.70;;;;;;;2.77;83.16;98836.83;1748109;81;21350;-83
2021/11/26 08:19:18;;;;;;;52.45;29.70;;;;;;;2.79;83.26;98835.77;1748238;82;21038;-83
2021/11/26 08:21:46;;;;;;;49.98;30.50;;;;;;;2.85;83.41;98828.50;1748190;82;21018;-83
2021/11/26 08:24:15;;;;;;;55.33;32.78;;;;;;;2.86;83.16;98827.56;1748416;81;20958;-83
2021/11/26 08:26:44;;;;;;;52.43;30.97;;;;;;;2.87;83.15;98822.73;1748138;81;21041;-83
2021/11/26 08:29:11;;;;;;;55.35;31.85;;;;;;;2.87;82.96;98816.23;1748240;82;21473;-83
2021/11/26 08:31:39;;;;;;;58.60;34.50;;;;;;;2.88;83.10;98816.11;1748132;81;21014;-83
2021/11/26 08:34:08;;;;;;;51.92;30.10;;;;;;;2.92;83.21;98814.14;1748263;81;21044;-83
2021/11/26 08:36:38;;;;;;;50.70;30.35;;;;;;;2.95;83.16;98813.47;1748071;81;21550;-83
2021/11/26 08:39:08;;;;;;;50.75;29.55;;;;;;;2.97;83.18;98813.39;1747967;82;21033;-83
2021/11/26 08:41:36;;;;;;;48.60;29.15;;;;;;;2.97;83.04;98797.28;1747930;82;21100;-83
2021/11/26 08:44:04;;;;;;;55.05;30.70;;;;;;;2.99;83.00;98795.86;1748330;81;21009;-83
2021/11/26 08:46:31;;;;;;;48.60;29.32;;;;;;;3.00;83.15;98789.73;1748242;81;21346;-83
2021/11/26 08:48:59;;;;;;;52.83;30.12;;;;;;;3.06;83.50;98782.82;1748293;82;21010;-83
2021/11/26 08:51:29;;;;;;;56.08;29.60;;;;;;;3.10;83.48;98778.23;1747960;82;21027;-83
2021/11/26 08:53:56;;;;;;;49.45;31.90;;;;;;;3.12;83.01;98777.64;1747977;81;21089;-83
2021/11/26 08:56:25;;;;;;;51.98;29.85;;;;;;;3.14;83.15;98769.27;1748142;82;21508;-83
2021/11/26 08:58:52;;;;;;;51.10;30.68;;;;;;;3.15;83.04;98758.72;1748020;81;22249;-83
2021/11/26 09:01:20;;;;;;;52.05;30.55;;;;;;;3.17;83.16;98751.65;1747965;82;21089;-83
2021/11/26 09:03:53;;;;;;;50.08;31.12;;;;;;;3.17;83.16;98747.73;1748311;82;21001;-83
2021/11/26 09:06:20;;;;;;;55.50;31.17;;;;;;;3.19;83.04;98743.27;1736096;82;21088;-83
2021/11/26 09:08:47;;;;;;;55.58;32.33;;;;;;;3.21;83.08;98741.38;1748217;82;21049;-83
2021/11/26 09:11:16;;;;;;;55.05;31.30;;;;;;;3.25;83.13;98736.31;1748082;82;20942;-83
2021/11/26 09:13:44;;;;;;;51.02;30.10;;;;;;;3.28;82.91;98735.27;1747974;82;21037;-83
2021/11/26 09:16:12;;;;;;;52.43;30.75;;;;;;;3.29;82.88;98726.06;1748116;81;21002;-83
2021/11/26 09:18:39;;;;;;;52.40;30.20;;;;;;;3.34;83.16;98724.44;1748382;81;20962;-83
2021/11/26 09:21:06;;;;;;;50.48;29.10;;;;;;;3.36;82.79;98721.73;1747875;81;21033;-83
2021/11/26 09:23:34;;;;;;;48.85;26.25;;;;;;;3.38;83.05;98715.92;1748247;82;21477;-83
2021/11/26 09:26:01;;;;;;;49.73;27.00;;;;;;;3.39;82.85;98718.45;1748075;82;21568;-83
2021/11/26 09:28:28;;;;;;;46.02;25.62;;;;;;;3.40;82.89;98710.15;1748461;82;20973;-83
2021/11/26 09:30:55;;;;;;;49.63;27.93;;;;;;;3.43;83.13;98709.94;1748044;82;20993;-83
2021/11/26 09:33:24;;;;;;;41.08;26.07;;;;;;;3.48;83.13;98703.92;1748126;82;21021;-83
2021/11/26 09:35:51;;;;;;;41.53;24.65;;;;;;;3.52;83.11;98704.92;1747805;82;21072;-83
2021/11/26 09:38:18;;;;;;;42.30;25.77;;;;;;;3.53;82.87;98703.98;1748346;82;21662;-83
2021/11/26 09:40:47;;;;;;;45.23;26.37;;;;;;;3.52;82.60;98700.16;1748009;82;21025;-83
2021/11/26 09:43:14;;;;;;;43.30;25.80;;;;;;;3.52;82.99;98693.63;1748267;82;21531;-83
2021/11/26 09:45:41;;;;;;;43.45;25.35;;;;;;;3.53;83.05;98691.41;1748083;82;21028;-83
2021/11/26 09:48:09;;;;;;;40.60;24.50;;;;;;;3.58;83.04;98688.47;1748314;82;21058;-83
2021/11/26 09:50:38;;;;;;;43.80;24.82;;;;;;;3.58;82.71;98682.78;1748215;81;21044;-83
2021/11/26 09:53:26;;;;;;;45.52;27.27;;;;;;;3.57;82.96;98679.81;1748373;81;20947;-83
2021/11/26 09:56:01;;;;;;;46.25;24.57;;;;;;;3.63;82.99;98669.43;1748257;82;21519;-83
2021/11/26 09:58:31;;;;;;;43.25;25.75;;;;;;;3.65;82.75;98676.22;1748366;82;20971;-83
2021/11/26 10:01:02;;;;;;;39.90;24.60;;;;;;;3.65;82.83;98677.97;1748356;81;21065;-83
2021/11/26 10:03:41;;;;;;;42.33;24.90;;;;;;;3.68;82.84;98681.19;1748414;82;21037;-83
2021/11/26 10:06:36;;;;;;;49.10;29.37;;;;;;;3.67;82.86;98675.62;1747618;81;21014;-83
2021/11/26 10:09:07;;;;;;;50.38;29.15;;;;;;;3.71;83.07;98671.84;1747469;81;21564;-83
2021/11/26 10:11:51;;;;;;;62.13;29.77;;;;;;;3.72;82.83;98662.27;1748359;82;20981;-83
2021/11/26 10:14:23;;;;;;;57.90;31.10;;;;;;;3.70;82.73;98663.66;1748425;82;21457;-83
2021/11/26 10:17:20;;;;;;;56.08;30.37;;;;;;;3.69;82.65;98654.66;1748292;81;21018;-83
2021/11/26 10:19:54;;;;;;;51.42;29.70;;;;;;;3.68;83.07;98649.88;1748300;81;21057;-83
2021/11/26 10:22:29;;;;;;;53.55;27.65;;;;;;;3.70;83.04;98637.58;1748295;82;21048;-83
2021/11/26 10:25:14;;;;;;;49.60;27.87;;;;;;;3.71;82.97;98630.10;1748666;82;21005;-83
2021/11/26 10:27:56;;;;;;;49.80;26.65;;;;;;;3.71;82.51;98625.36;1746587;81;21073;-83
2021/11/26 10:30:31;;;;;;;52.83;28.70;;;;;;;3.67;82.65;98623.45;1747948;81;21010;-83
2021/11/26 10:33:20;;;;;;;48.92;26.33;;;;;;;3.68;82.98;98618.58;1743452;82;21029;-83
2021/11/26 10:35:58;;;;;;;48.85;27.87;;;;;;;3.70;83.07;98609.36;1746302;82;21039;-83
2021/11/26 10:38:34;;;;;;;47.43;26.65;;;;;;;3.74;82.83;98610.80;1748276;81;21027;-83
2021/11/26 10:41:09;;;;;;;45.98;27.15;;;;;;;3.75;82.93;98605.48;1748035;81;21070;-83
2021/11/26 10:59:53;;;;;;;40.03;24.85;;;;;;;3.89;82.80;98565.34;1735688;80;21008;-83
2021/11/26 11:02:35;;;;;;;44.53;24.63;;;;;;;3.85;82.65;98558.69;1728575;82;21036;-83
2021/11/26 11:05:04;;;;;;;41.23;25.43;;;;;;;3.82;82.63;98554.99;1737960;80;21031;-83
2021/11/26 11:07:45;;;;;;;44.58;27.17;;;;;;;3.81;82.46;98554.61;1721914;82;21015;-83
2021/11/26 11:10:37;;;;;;;52.17;28.50;;;;;;;3.82;82.96;98551.08;1745300;80;21013;-83
2021/11/26 11:13:17;;;;;;;45.70;27.77;;;;;;;3.84;82.98;98545.73;1744496;82;21005;-83
2021/11/26 11:15:47;;;;;;;51.90;29.10;;;;;;;3.86;83.01;98538.16;1747966;82;20997;-82
2021/11/26 11:18:15;;;;;;;52.95;29.98;;;;;;;3.90;83.19;98538.77;1718016;82;21007;-83
2021/11/26 11:20:44;;;;;;;51.20;29.48;;;;;;;3.90;82.82;98535.68;1740085;82;21019;-83
2021/11/26 11:23:14;;;;;;;55.70;29.72;;;;;;;3.91;82.91;98535.20;1745688;82;20963;-83
2021/11/26 11:25:41;;;;;;;48.50;26.55;;;;;;;3.92;82.81;98529.06;1746268;81;21035;-83
2021/11/26 11:28:11;;;;;;;48.55;27.52;;;;;;;3.91;82.56;98530.81;1737293;82;20988;-83
2021/11/26 11:30:40;;;;;;;51.25;28.00;;;;;;;3.91;82.65;98523.45;1736552;80;21048;-83
2021/11/26 11:33:08;;;;;;;49.05;27.40;;;;;;;3.91;82.60;98524.77;1741492;82;21330;-83
2021/11/26 11:35:38;;;;;;;54.93;33.95;;;;;;;3.91;82.76;98517.77;1745254;82;21019;-83
2021/11/26 11:38:09;;;;;;;45.23;28.50;;;;;;;3.93;82.71;98513.75;1746521;82;21501;-83
2021/11/26 11:40:41;;;;;;;49.85;29.52;;;;;;;3.95;82.85;98508.79;1743671;82;21082;-83
2021/11/26 11:43:16;;;;;;;46.60;27.98;;;;;;;3.97;82.69;98509.48;1746667;82;20971;-83
2021/11/26 11:46:03;;;;;;;45.45;27.32;;;;;;;3.97;82.48;98509.48;1718704;82;20996;-83
2021/11/26 11:48:37;;;;;;;45.40;26.12;;;;;;;3.94;82.56;98497.14;1736749;80;20982;-83
2021/11/26 11:51:07;;;;;;;53.13;30.72;;;;;;;3.94;82.78;98493.23;1726627;82;20996;-83